sensor_id;sensor_type;location;lat;lon;timestamp;P1;durP1;ratioP1;P2;durP2;ratioP2
26574;SDS011;67165;50.256;10.978;2023-11-19T00:00:20;6.88;;;5.72;;
26574;SDS011;67165;50.256;10.978;2023-11-19T00:02:45;8.05;;;5.60;;
26574;SDS011;67165;50.256;10.978;2023-11-19T00:05:12;8.48;;;5.93;;
26574;SDS011;67165;50.256;10.978;2023-11-19T00:07:38;8.80;;;5.65;;
26574;SDS011;67165;50.256;10.978;2023-11-19T00:10:09;7.20;;;5.75;;
26574;SDS011;67165;50.256;10.978;2023-11-19T00:12:44;7.10;;;4.90;;
26574;SDS011;67165;50.256;10.978;2023-11-19T00:15:11;7.07;;;5.70;;
26574;SDS011;67165;50.256;10.978;2023-11-19T00:17:38;7.47;;;5.88;;
26574;SDS011;67165;50.256;10.978;2023-11-19T00:20:06;6.72;;;4.82;;
26574;SDS011;67165;50.256;10.978;2023-11-19T00:22:33;7.85;;;5.50;;
26574;SDS011;67165;50.256;10.978;2023-11-19T00:24:59;5.88;;;5.22;;
26574;SDS011;67165;50.256;10.978;2023-11-19T00:27:24;6.55;;;5.60;;
26574;SDS011;67165;50.256;10.978;2023-11-19T00:29:51;9.02;;;6.18;;
26574;SDS011;67165;50.256;10.978;2023-11-19T00:32:16;7.10;;;5.45;;
26574;SDS011;67165;50.256;10.978;2023-11-19T00:34:45;9.07;;;6.03;;
26574;SDS011;67165;50.256;10.978;2023-11-19T00:37:12;6.85;;;6.00;;
26574;SDS011;67165;50.256;10.978;2023-11-19T00:39:38;6.82;;;5.85;;
26574;SDS011;67165;50.256;10.978;2023-11-19T00:42:04;7.40;;;5.90;;
26574;SDS011;67165;50.256;10.978;2023-11-19T00:44:30;7.55;;;6.18;;
26574;SDS011;67165;50.256;10.978;2023-11-19T00:46:56;7.80;;;6.32;;
26574;SDS011;67165;50.256;10.978;2023-11-19T00:49:21;7.32;;;6.07;;
26574;SDS011;67165;50.256;10.978;2023-11-19T00:51:47;7.38;;;6.50;;
26574;SDS011;67165;50.256;10.978;2023-11-19T00:54:14;7.80;;;6.22;;
26574;SDS011;67165;50.256;10.978;2023-11-19T00:56:39;7.35;;;6.25;;
26574;SDS011;67165;50.256;10.978;2023-11-19T00:59:05;10.10;;;7.20;;
26574;SDS011;67165;50.256;10.978;2023-11-19T01:01:30;7.35;;;6.63;;
26574;SDS011;67165;50.256;10.978;2023-11-19T01:03:56;8.90;;;6.70;;
26574;SDS011;67165;50.256;10.978;2023-11-19T01:06:28;7.63;;;6.63;;
26574;SDS011;67165;50.256;10.978;2023-11-19T01:08:57;7.28;;;6.32;;
26574;SDS011;67165;50.256;10.978;2023-11-19T01:11:23;8.75;;;6.53;;
26574;SDS011;67165;50.256;10.978;2023-11-19T01:13:50;9.75;;;7.30;;
26574;SDS011;67165;50.256;10.978;2023-11-19T01:16:16;8.95;;;7.05;;
26574;SDS011;67165;50.256;10.978;2023-11-19T01:18:43;9.07;;;6.80;;
26574;SDS011;67165;50.256;10.978;2023-11-19T01:21:09;10.43;;;6.75;;
26574;SDS011;67165;50.256;10.978;2023-11-19T01:23:35;9.77;;;7.32;;
26574;SDS011;67165;50.256;10.978;2023-11-19T01:26:02;8.85;;;6.78;;
26574;SDS011;67165;50.256;10.978;2023-11-19T01:28:28;8.75;;;7.07;;
26574;SDS011;67165;50.256;10.978;2023-11-19T01:30:53;14.27;;;8.40;;
26574;SDS011;67165;50.256;10.978;2023-11-19T01:33:19;7.97;;;7.03;;
26574;SDS011;67165;50.256;10.978;2023-11-19T01:35:46;8.02;;;7.22;;
26574;SDS011;67165;50.256;10.978;2023-11-19T01:38:12;7.40;;;6.30;;
26574;SDS011;67165;50.256;10.978;2023-11-19T01:40:37;7.95;;;6.90;;
26574;SDS011;67165;50.256;10.978;2023-11-19T01:43:03;8.57;;;6.68;;
26574;SDS011;67165;50.256;10.978;2023-11-19T01:45:29;7.72;;;6.93;;
26574;SDS011;67165;50.256;10.978;2023-11-19T01:48:00;8.45;;;7.10;;
26574;SDS011;67165;50.256;10.978;2023-11-19T01:50:30;7.68;;;6.30;;
26574;SDS011;67165;50.256;10.978;2023-11-19T01:52:58;8.32;;;7.30;;
26574;SDS011;67165;50.256;10.978;2023-11-19T01:55:23;10.95;;;6.78;;
26574;SDS011;67165;50.256;10.978;2023-11-19T01:57:53;7.40;;;6.53;;
26574;SDS011;67165;50.256;10.978;2023-11-19T02:00:24;7.60;;;6.78;;
26574;SDS011;67165;50.256;10.978;2023-11-19T02:02:50;7.80;;;6.97;;
26574;SDS011;67165;50.256;10.978;2023-11-19T02:05:17;9.45;;;7.05;;
26574;SDS011;67165;50.256;10.978;2023-11-19T02:07:43;9.65;;;6.60;;
26574;SDS011;67165;50.256;10.978;2023-11-19T02:10:09;9.52;;;7.25;;
26574;SDS011;67165;50.256;10.978;2023-11-19T02:12:42;7.65;;;6.80;;
26574;SDS011;67165;50.256;10.978;2023-11-19T02:15:09;7.70;;;6.40;;
26574;SDS011;67165;50.256;10.978;2023-11-19T02:17:35;6.97;;;6.05;;
26574;SDS011;67165;50.256;10.978;2023-11-19T02:20:03;6.45;;;5.75;;
26574;SDS011;67165;50.256;10.978;2023-11-19T02:22:34;7.82;;;6.30;;
26574;SDS011;67165;50.256;10.978;2023-11-19T02:25:00;6.18;;;5.50;;
26574;SDS011;67165;50.256;10.978;2023-11-19T02:30:22;6.65;;;5.82;;
26574;SDS011;67165;50.256;10.978;2023-11-19T02:32:54;5.75;;;5.15;;
26574;SDS011;67165;50.256;10.978;2023-11-19T02:35:22;6.20;;;5.30;;
26574;SDS011;67165;50.256;10.978;2023-11-19T02:37:48;5.72;;;5.13;;
26574;SDS011;67165;50.256;10.978;2023-11-19T02:40:14;5.80;;;5.22;;
26574;SDS011;67165;50.256;10.978;2023-11-19T02:42:40;6.72;;;5.13;;
26574;SDS011;67165;50.256;10.978;2023-11-19T02:45:06;6.68;;;5.53;;
26574;SDS011;67165;50.256;10.978;2023-11-19T02:47:33;7.18;;;5.40;;
26574;SDS011;67165;50.256;10.978;2023-11-19T02:49:59;7.95;;;5.68;;
26574;SDS011;67165;50.256;10.978;2023-11-19T02:52:25;6.03;;;5.43;;
26574;SDS011;67165;50.256;10.978;2023-11-19T02:54:50;6.85;;;5.70;;
26574;SDS011;67165;50.256;10.978;2023-11-19T02:57:16;5.85;;;5.25;;
26574;SDS011;67165;50.256;10.978;2023-11-19T02:59:44;6.45;;;5.82;;
26574;SDS011;67165;50.256;10.978;2023-11-19T03:02:10;6.13;;;5.50;;
26574;SDS011;67165;50.256;10.978;2023-11-19T03:04:36;6.25;;;5.55;;
26574;SDS011;67165;50.256;10.978;2023-11-19T03:07:05;6.05;;;5.40;;
26574;SDS011;67165;50.256;10.978;2023-11-19T03:09:34;5.90;;;5.28;;
26574;SDS011;67165;50.256;10.978;2023-11-19T03:12:00;5.75;;;5.15;;
26574;SDS011;67165;50.256;10.978;2023-11-19T03:14:27;6.65;;;5.82;;
26574;SDS011;67165;50.256;10.978;2023-11-19T03:16:53;5.85;;;5.25;;
26574;SDS011;67165;50.256;10.978;2023-11-19T03:19:18;5.10;;;4.60;;
26574;SDS011;67165;50.256;10.978;2023-11-19T03:21:44;5.15;;;4.65;;
26574;SDS011;67165;50.256;10.978;2023-11-19T03:24:10;4.63;;;4.22;;
26574;SDS011;67165;50.256;10.978;2023-11-19T03:26:38;4.47;;;4.07;;
26574;SDS011;67165;50.256;10.978;2023-11-19T03:29:04;5.05;;;4.40;;
26574;SDS011;67165;50.256;10.978;2023-11-19T03:31:30;4.60;;;4.20;;
26574;SDS011;67165;50.256;10.978;2023-11-19T03:33:55;6.32;;;4.30;;
26574;SDS011;67165;50.256;10.978;2023-11-19T03:36:21;4.43;;;3.83;;
26574;SDS011;67165;50.256;10.978;2023-11-19T03:38:47;4.30;;;3.90;;
26574;SDS011;67165;50.256;10.978;2023-11-19T03:41:13;4.15;;;3.75;;
26574;SDS011;67165;50.256;10.978;2023-11-19T03:43:40;4.18;;;3.78;;
26574;SDS011;67165;50.256;10.978;2023-11-19T03:46:16;6.07;;;3.88;;
26574;SDS011;67165;50.256;10.978;2023-11-19T03:48:46;4.00;;;3.50;;
26574;SDS011;67165;50.256;10.978;2023-11-19T03:51:12;3.80;;;3.42;;
26574;SDS011;67165;50.256;10.978;2023-11-19T03:53:42;3.47;;;3.17;;
26574;SDS011;67165;50.256;10.978;2023-11-19T03:56:09;4.88;;;3.55;;
26574;SDS011;67165;50.256;10.978;2023-11-19T03:58:36;5.07;;;4.03;;
26574;SDS011;67165;50.256;10.978;2023-11-19T04:01:03;4.97;;;4.07;;
26574;SDS011;67165;50.256;10.978;2023-11-19T04:03:36;4.35;;;3.92;;
26574;SDS011;67165;50.256;10.978;2023-11-19T04:06:01;5.10;;;4.00;;
26574;SDS011;67165;50.256;10.978;2023-11-19T04:08:27;5.60;;;4.45;;
26574;SDS011;67165;50.256;10.978;2023-11-19T04:10:54;6.70;;;5.22;;
26574;SDS011;67165;50.256;10.978;2023-11-19T04:13:19;4.63;;;4.22;;
26574;SDS011;67165;50.256;10.978;2023-11-19T04:15:45;6.80;;;5.70;;
26574;SDS011;67165;50.256;10.978;2023-11-19T04:18:11;8.02;;;7.07;;
26574;SDS011;67165;50.256;10.978;2023-11-19T04:20:36;8.23;;;6.93;;
26574;SDS011;67165;50.256;10.978;2023-11-19T04:23:02;7.60;;;6.65;;
26574;SDS011;67165;50.256;10.978;2023-11-19T04:25:30;9.15;;;7.07;;
26574;SDS011;67165;50.256;10.978;2023-11-19T04:27:56;9.70;;;7.03;;
26574;SDS011;67165;50.256;10.978;2023-11-19T04:30:22;9.18;;;7.75;;
26574;SDS011;67165;50.256;10.978;2023-11-19T04:32:47;8.13;;;7.32;;
26574;SDS011;67165;50.256;10.978;2023-11-19T04:35:13;7.55;;;6.60;;
26574;SDS011;67165;50.256;10.978;2023-11-19T04:37:39;9.02;;;7.40;;
26574;SDS011;67165;50.256;10.978;2023-11-19T04:40:06;8.00;;;6.97;;
26574;SDS011;67165;50.256;10.978;2023-11-19T04:42:32;7.82;;;7.03;;
26574;SDS011;67165;50.256;10.978;2023-11-19T04:44:58;8.13;;;6.90;;
26574;SDS011;67165;50.256;10.978;2023-11-19T04:47:23;11.50;;;7.88;;
26574;SDS011;67165;50.256;10.978;2023-11-19T04:49:49;8.30;;;7.28;;
26574;SDS011;67165;50.256;10.978;2023-11-19T04:52:15;8.70;;;7.80;;
26574;SDS011;67165;50.256;10.978;2023-11-19T04:54:41;9.23;;;8.23;;
26574;SDS011;67165;50.256;10.978;2023-11-19T04:57:08;9.48;;;8.45;;
26574;SDS011;67165;50.256;10.978;2023-11-19T04:59:36;10.00;;;8.73;;
26574;SDS011;67165;50.256;10.978;2023-11-19T05:02:03;11.13;;;9.52;;
26574;SDS011;67165;50.256;10.978;2023-11-19T05:04:29;9.88;;;8.50;;
26574;SDS011;67165;50.256;10.978;2023-11-19T05:06:55;10.70;;;9.13;;
26574;SDS011;67165;50.256;10.978;2023-11-19T05:09:21;10.25;;;8.23;;
26574;SDS011;67165;50.256;10.978;2023-11-19T05:11:46;8.98;;;8.07;;
26574;SDS011;67165;50.256;10.978;2023-11-19T05:14:13;10.82;;;8.85;;
26574;SDS011;67165;50.256;10.978;2023-11-19T05:16:39;11.32;;;9.30;;
26574;SDS011;67165;50.256;10.978;2023-11-19T05:19:05;11.65;;;9.18;;
26574;SDS011;67165;50.256;10.978;2023-11-19T05:21:31;10.85;;;9.13;;
26574;SDS011;67165;50.256;10.978;2023-11-19T05:23:57;13.32;;;10.77;;
26574;SDS011;67165;50.256;10.978;2023-11-19T05:26:23;12.73;;;10.35;;
26574;SDS011;67165;50.256;10.978;2023-11-19T05:28:49;12.02;;;10.13;;
26574;SDS011;67165;50.256;10.978;2023-11-19T05:31:15;15.23;;;11.05;;
26574;SDS011;67165;50.256;10.978;2023-11-19T05:33:42;13.77;;;11.45;;
26574;SDS011;67165;50.256;10.978;2023-11-19T05:36:08;12.43;;;10.70;;
26574;SDS011;67165;50.256;10.978;2023-11-19T05:38:35;13.23;;;10.25;;
26574;SDS011;67165;50.256;10.978;2023-11-19T05:41:02;12.52;;;9.65;;
26574;SDS011;67165;50.256;10.978;2023-11-19T05:43:28;13.27;;;9.63;;
26574;SDS011;67165;50.256;10.978;2023-11-19T05:45:53;10.35;;;8.45;;
26574;SDS011;67165;50.256;10.978;2023-11-19T05:48:19;12.63;;;8.90;;
26574;SDS011;67165;50.256;10.978;2023-11-19T05:50:45;10.25;;;8.68;;
26574;SDS011;67165;50.256;10.978;2023-11-19T05:53:11;11.25;;;9.32;;
26574;SDS011;67165;50.256;10.978;2023-11-19T05:55:39;9.63;;;8.38;;
26574;SDS011;67165;50.256;10.978;2023-11-19T05:58:11;11.40;;;9.73;;
26574;SDS011;67165;50.256;10.978;2023-11-19T06:00:40;13.50;;;9.60;;
26574;SDS011;67165;50.256;10.978;2023-11-19T06:03:09;9.70;;;8.70;;
26574;SDS011;67165;50.256;10.978;2023-11-19T06:05:34;14.43;;;9.88;;
26574;SDS011;67165;50.256;10.978;2023-11-19T06:08:00;11.68;;;10.00;;
26574;SDS011;67165;50.256;10.978;2023-11-19T06:10:26;12.85;;;10.60;;
26574;SDS011;67165;50.256;10.978;2023-11-19T06:12:56;12.25;;;10.40;;
26574;SDS011;67165;50.256;10.978;2023-11-19T06:15:28;13.40;;;10.82;;
26574;SDS011;67165;50.256;10.978;2023-11-19T06:17:53;11.50;;;10.10;;
26574;SDS011;67165;50.256;10.978;2023-11-19T06:20:25;14.00;;;10.48;;
26574;SDS011;67165;50.256;10.978;2023-11-19T06:22:53;17.50;;;13.40;;
26574;SDS011;67165;50.256;10.978;2023-11-19T06:25:19;14.52;;;11.25;;
26574;SDS011;67165;50.256;10.978;2023-11-19T06:27:44;16.17;;;11.43;;
26574;SDS011;67165;50.256;10.978;2023-11-19T06:30:10;13.48;;;11.18;;
26574;SDS011;67165;50.256;10.978;2023-11-19T06:32:37;14.20;;;11.60;;
26574;SDS011;67165;50.256;10.978;2023-11-19T06:35:02;14.85;;;12.15;;
26574;SDS011;67165;50.256;10.978;2023-11-19T06:37:29;15.77;;;11.77;;
26574;SDS011;67165;50.256;10.978;2023-11-19T06:39:55;15.35;;;12.30;;
26574;SDS011;67165;50.256;10.978;2023-11-19T06:42:21;15.18;;;11.88;;
26574;SDS011;67165;50.256;10.978;2023-11-19T06:44:46;18.30;;;14.07;;
26574;SDS011;67165;50.256;10.978;2023-11-19T06:47:12;15.68;;;12.27;;
26574;SDS011;67165;50.256;10.978;2023-11-19T06:49:38;13.40;;;10.82;;
26574;SDS011;67165;50.256;10.978;2023-11-19T06:52:03;15.85;;;11.43;;
26574;SDS011;67165;50.256;10.978;2023-11-19T06:54:29;13.73;;;11.82;;
26574;SDS011;67165;50.256;10.978;2023-11-19T06:56:56;14.55;;;12.15;;
26574;SDS011;67165;50.256;10.978;2023-11-19T06:59:22;13.43;;;11.63;;
26574;SDS011;67165;50.256;10.978;2023-11-19T07:01:48;15.00;;;12.25;;
26574;SDS011;67165;50.256;10.978;2023-11-19T07:04:14;18.50;;;13.73;;
26574;SDS011;67165;50.256;10.978;2023-11-19T07:06:39;13.95;;;11.63;;
26574;SDS011;67165;50.256;10.978;2023-11-19T07:09:08;15.55;;;12.80;;
26574;SDS011;67165;50.256;10.978;2023-11-19T07:11:37;15.68;;;12.55;;
26574;SDS011;67165;50.256;10.978;2023-11-19T07:14:03;18.00;;;14.38;;
26574;SDS011;67165;50.256;10.978;2023-11-19T07:16:31;14.32;;;12.77;;
26574;SDS011;67165;50.256;10.978;2023-11-19T07:18:57;14.48;;;12.70;;
26574;SDS011;67165;50.256;10.978;2023-11-19T07:21:24;14.23;;;12.27;;
26574;SDS011;67165;50.256;10.978;2023-11-19T07:23:50;14.57;;;12.20;;
26574;SDS011;67165;50.256;10.978;2023-11-19T07:26:16;13.65;;;11.40;;
26574;SDS011;67165;50.256;10.978;2023-11-19T07:28:42;15.95;;;13.13;;
26574;SDS011;67165;50.256;10.978;2023-11-19T07:31:10;18.35;;;13.77;;
26574;SDS011;67165;50.256;10.978;2023-11-19T07:33:36;16.40;;;13.10;;
26574;SDS011;67165;50.256;10.978;2023-11-19T07:36:02;20.05;;;14.73;;
26574;SDS011;67165;50.256;10.978;2023-11-19T07:38:27;21.05;;;14.50;;
26574;SDS011;67165;50.256;10.978;2023-11-19T07:40:53;15.40;;;12.10;;
26574;SDS011;67165;50.256;10.978;2023-11-19T07:43:19;15.55;;;12.13;;
26574;SDS011;67165;50.256;10.978;2023-11-19T07:45:44;15.95;;;12.07;;
26574;SDS011;67165;50.256;10.978;2023-11-19T07:48:13;18.50;;;12.27;;
26574;SDS011;67165;50.256;10.978;2023-11-19T07:50:40;15.52;;;11.73;;
26574;SDS011;67165;50.256;10.978;2023-11-19T07:53:09;14.30;;;11.30;;
26574;SDS011;67165;50.256;10.978;2023-11-19T07:55:35;15.00;;;11.52;;
26574;SDS011;67165;50.256;10.978;2023-11-19T07:58:00;12.18;;;10.40;;
26574;SDS011;67165;50.256;10.978;2023-11-19T08:00:26;14.82;;;11.40;;
26574;SDS011;67165;50.256;10.978;2023-11-19T08:02:52;11.98;;;10.02;;
26574;SDS011;67165;50.256;10.978;2023-11-19T08:05:17;12.32;;;9.77;;
26574;SDS011;67165;50.256;10.978;2023-11-19T08:07:43;13.77;;;9.88;;
26574;SDS011;67165;50.256;10.978;2023-11-19T08:10:09;11.68;;;9.23;;
26574;SDS011;67165;50.256;10.978;2023-11-19T08:12:35;15.93;;;9.70;;
26574;SDS011;67165;50.256;10.978;2023-11-19T08:15:02;11.45;;;8.52;;
26574;SDS011;67165;50.256;10.978;2023-11-19T08:17:28;9.82;;;7.78;;
26574;SDS011;67165;50.256;10.978;2023-11-19T08:19:53;12.65;;;9.18;;
26574;SDS011;67165;50.256;10.978;2023-11-19T08:22:19;11.15;;;9.07;;
26574;SDS011;67165;50.256;10.978;2023-11-19T08:24:44;10.95;;;8.85;;
26574;SDS011;67165;50.256;10.978;2023-11-19T08:27:10;9.82;;;8.13;;
26574;SDS011;67165;50.256;10.978;2023-11-19T08:29:36;9.35;;;7.47;;
26574;SDS011;67165;50.256;10.978;2023-11-19T08:32:01;8.45;;;7.07;;
26574;SDS011;67165;50.256;10.978;2023-11-19T08:34:28;11.02;;;6.45;;
26574;SDS011;67165;50.256;10.978;2023-11-19T08:36:54;6.65;;;5.05;;
26574;SDS011;67165;50.256;10.978;2023-11-19T08:39:20;6.32;;;4.90;;
26574;SDS011;67165;50.256;10.978;2023-11-19T08:41:46;6.68;;;4.05;;
26574;SDS011;67165;50.256;10.978;2023-11-19T08:44:13;3.88;;;3.47;;
26574;SDS011;67165;50.256;10.978;2023-11-19T08:46:39;4.97;;;3.63;;
26574;SDS011;67165;50.256;10.978;2023-11-19T08:49:11;3.65;;;3.05;;
26574;SDS011;67165;50.256;10.978;2023-11-19T08:51:36;6.20;;;3.10;;
26574;SDS011;67165;50.256;10.978;2023-11-19T08:54:02;4.93;;;3.10;;
26574;SDS011;67165;50.256;10.978;2023-11-19T08:56:28;5.55;;;3.60;;
26574;SDS011;67165;50.256;10.978;2023-11-19T08:58:57;5.82;;;3.58;;
26574;SDS011;67165;50.256;10.978;2023-11-19T09:01:23;3.45;;;3.08;;
26574;SDS011;67165;50.256;10.978;2023-11-19T09:03:49;4.82;;;2.97;;
26574;SDS011;67165;50.256;10.978;2023-11-19T09:06:15;3.33;;;2.70;;
26574;SDS011;67165;50.256;10.978;2023-11-19T09:08:42;5.22;;;3.08;;
26574;SDS011;67165;50.256;10.978;2023-11-19T09:11:07;11.15;;;7.35;;
26574;SDS011;67165;50.256;10.978;2023-11-19T09:13:34;5.90;;;4.03;;
26574;SDS011;67165;50.256;10.978;2023-11-19T09:16:00;6.55;;;3.58;;
26574;SDS011;67165;50.256;10.978;2023-11-19T09:18:28;10.02;;;3.47;;
26574;SDS011;67165;50.256;10.978;2023-11-19T09:20:55;4.07;;;3.67;;
26574;SDS011;67165;50.256;10.978;2023-11-19T09:23:20;7.82;;;3.65;;
26574;SDS011;67165;50.256;10.978;2023-11-19T09:25:46;8.80;;;3.88;;
26574;SDS011;67165;50.256;10.978;2023-11-19T09:28:12;4.63;;;3.53;;
26574;SDS011;67165;50.256;10.978;2023-11-19T09:30:39;6.88;;;4.70;;
26574;SDS011;67165;50.256;10.978;2023-11-19T09:33:05;7.75;;;5.65;;
26574;SDS011;67165;50.256;10.978;2023-11-19T09:35:31;9.70;;;8.15;;
26574;SDS011;67165;50.256;10.978;2023-11-19T09:37:57;9.02;;;6.03;;
26574;SDS011;67165;50.256;10.978;2023-11-19T09:40:23;14.57;;;9.68;;
26574;SDS011;67165;50.256;10.978;2023-11-19T09:42:48;10.98;;;8.77;;
26574;SDS011;67165;50.256;10.978;2023-11-19T09:45:15;9.38;;;4.72;;
26574;SDS011;67165;50.256;10.978;2023-11-19T09:47:45;7.88;;;6.22;;
26574;SDS011;67165;50.256;10.978;2023-11-19T09:50:18;8.00;;;5.00;;
26574;SDS011;67165;50.256;10.978;2023-11-19T09:52:45;5.95;;;4.53;;
26574;SDS011;67165;50.256;10.978;2023-11-19T09:55:13;11.95;;;7.88;;
26574;SDS011;67165;50.256;10.978;2023-11-19T09:57:39;9.85;;;7.50;;
26574;SDS011;67165;50.256;10.978;2023-11-19T10:00:09;12.73;;;4.40;;
26574;SDS011;67165;50.256;10.978;2023-11-19T10:02:36;9.52;;;4.68;;
26574;SDS011;67165;50.256;10.978;2023-11-19T10:05:06;4.47;;;3.38;;
26574;SDS011;67165;50.256;10.978;2023-11-19T10:07:33;11.80;;;8.13;;
26574;SDS011;67165;50.256;10.978;2023-11-19T10:10:02;7.78;;;5.55;;
26574;SDS011;67165;50.256;10.978;2023-11-19T10:12:29;12.43;;;7.85;;
26574;SDS011;67165;50.256;10.978;2023-11-19T10:14:58;7.28;;;4.20;;
26574;SDS011;67165;50.256;10.978;2023-11-19T10:17:42;8.85;;;5.07;;
26574;SDS011;67165;50.256;10.978;2023-11-19T10:20:08;6.35;;;3.83;;
26574;SDS011;67165;50.256;10.978;2023-11-19T10:22:36;10.02;;;5.75;;
26574;SDS011;67165;50.256;10.978;2023-11-19T10:25:03;8.38;;;5.05;;
26574;SDS011;67165;50.256;10.978;2023-11-19T10:27:29;6.50;;;4.25;;
26574;SDS011;67165;50.256;10.978;2023-11-19T10:29:57;6.63;;;2.92;;
26574;SDS011;67165;50.256;10.978;2023-11-19T10:32:25;5.28;;;2.70;;
26574;SDS011;67165;50.256;10.978;2023-11-19T10:34:50;7.70;;;3.20;;
26574;SDS011;67165;50.256;10.978;2023-11-19T10:37:27;9.10;;;4.72;;
26574;SDS011;67165;50.256;10.978;2023-11-19T10:39:55;8.20;;;3.10;;
26574;SDS011;67165;50.256;10.978;2023-11-19T10:42:20;8.82;;;4.65;;
26574;SDS011;67165;50.256;10.978;2023-11-19T10:44:47;11.80;;;4.70;;
26574;SDS011;67165;50.256;10.978;2023-11-19T10:47:15;9.05;;;3.92;;
26574;SDS011;67165;50.256;10.978;2023-11-19T10:49:44;5.38;;;2.55;;
26574;SDS011;67165;50.256;10.978;2023-11-19T10:52:19;13.07;;;6.80;;
26574;SDS011;67165;50.256;10.978;2023-11-19T10:54:47;9.25;;;4.50;;
26574;SDS011;67165;50.256;10.978;2023-11-19T10:57:19;6.72;;;3.30;;
26574;SDS011;67165;50.256;10.978;2023-11-19T10:59:49;12.05;;;4.90;;
26574;SDS011;67165;50.256;10.978;2023-11-19T11:02:21;7.18;;;3.20;;
26574;SDS011;67165;50.256;10.978;2023-11-19T11:04:50;20.70;;;11.18;;
26574;SDS011;67165;50.256;10.978;2023-11-19T11:07:17;17.10;;;9.27;;
26574;SDS011;67165;50.256;10.978;2023-11-19T11:09:50;6.40;;;3.53;;
26574;SDS011;67165;50.256;10.978;2023-11-19T11:12:17;20.00;;;9.88;;
26574;SDS011;67165;50.256;10.978;2023-11-19T11:14:47;11.50;;;6.75;;
26574;SDS011;67165;50.256;10.978;2023-11-19T11:17:13;8.20;;;3.50;;
26574;SDS011;67165;50.256;10.978;2023-11-19T11:19:42;9.05;;;2.47;;
26574;SDS011;67165;50.256;10.978;2023-11-19T11:22:08;7.57;;;2.20;;
26574;SDS011;67165;50.256;10.978;2023-11-19T11:39:58;6.60;;;1.85;;
26574;SDS011;67165;50.256;10.978;2023-11-19T11:42:30;6.80;;;1.85;;
26574;SDS011;67165;50.256;10.978;2023-11-19T11:50:19;8.52;;;1.80;;
26574;SDS011;67165;50.256;10.978;2023-11-19T11:57:52;5.32;;;1.92;;
26574;SDS011;67165;50.256;10.978;2023-11-19T12:00:22;7.70;;;2.15;;
26574;SDS011;67165;50.256;10.978;2023-11-19T12:02:48;12.05;;;2.13;;
26574;SDS011;67165;50.256;10.978;2023-11-19T12:05:15;11.13;;;2.80;;
26574;SDS011;67165;50.256;10.978;2023-11-19T12:07:41;9.32;;;2.20;;
26574;SDS011;67165;50.256;10.978;2023-11-19T12:10:19;8.77;;;2.20;;
26574;SDS011;67165;50.256;10.978;2023-11-19T12:12:47;6.97;;;1.83;;
26574;SDS011;67165;50.256;10.978;2023-11-19T12:15:12;11.48;;;2.40;;
26574;SDS011;67165;50.256;10.978;2023-11-19T12:17:49;11.43;;;2.58;;
26574;SDS011;67165;50.256;10.978;2023-11-19T12:20:16;11.30;;;2.28;;
26574;SDS011;67165;50.256;10.978;2023-11-19T12:22:46;10.90;;;2.70;;
26574;SDS011;67165;50.256;10.978;2023-11-19T12:25:14;12.75;;;2.75;;
26574;SDS011;67165;50.256;10.978;2023-11-19T12:27:45;14.50;;;2.88;;
26574;SDS011;67165;50.256;10.978;2023-11-19T12:30:11;14.30;;;2.33;;
26574;SDS011;67165;50.256;10.978;2023-11-19T12:32:41;13.05;;;2.50;;
26574;SDS011;67165;50.256;10.978;2023-11-19T12:35:07;7.18;;;3.08;;
26574;SDS011;67165;50.256;10.978;2023-11-19T12:37:46;14.00;;;3.38;;
26574;SDS011;67165;50.256;10.978;2023-11-19T12:40:22;19.77;;;7.35;;
26574;SDS011;67165;50.256;10.978;2023-11-19T12:42:50;14.50;;;3.92;;
26574;SDS011;67165;50.256;10.978;2023-11-19T12:45:17;15.73;;;4.90;;
26574;SDS011;67165;50.256;10.978;2023-11-19T12:47:45;16.05;;;3.72;;
26574;SDS011;67165;50.256;10.978;2023-11-19T12:50:16;10.82;;;3.03;;
26574;SDS011;67165;50.256;10.978;2023-11-19T12:52:43;15.02;;;4.25;;
26574;SDS011;67165;50.256;10.978;2023-11-19T12:55:28;11.90;;;3.60;;
26574;SDS011;67165;50.256;10.978;2023-11-19T12:57:54;15.43;;;3.40;;
26574;SDS011;67165;50.256;10.978;2023-11-19T13:00:24;10.48;;;2.97;;
26574;SDS011;67165;50.256;10.978;2023-11-19T13:02:51;10.07;;;3.47;;
26574;SDS011;67165;50.256;10.978;2023-11-19T13:08:04;15.52;;;3.92;;
26574;SDS011;67165;50.256;10.978;2023-11-19T13:13:16;14.35;;;3.15;;
26574;SDS011;67165;50.256;10.978;2023-11-19T13:15:42;12.90;;;3.38;;
26574;SDS011;67165;50.256;10.978;2023-11-19T13:18:10;12.77;;;3.55;;
26574;SDS011;67165;50.256;10.978;2023-11-19T13:20:36;11.70;;;3.47;;
26574;SDS011;67165;50.256;10.978;2023-11-19T13:23:05;13.65;;;2.90;;
26574;SDS011;67165;50.256;10.978;2023-11-19T13:25:32;12.57;;;2.88;;
26574;SDS011;67165;50.256;10.978;2023-11-19T13:27:58;19.80;;;8.23;;
26574;SDS011;67165;50.256;10.978;2023-11-19T13:30:24;12.00;;;2.58;;
26574;SDS011;67165;50.256;10.978;2023-11-19T13:32:51;13.02;;;2.97;;
26574;SDS011;67165;50.256;10.978;2023-11-19T13:35:17;18.70;;;3.30;;
26574;SDS011;67165;50.256;10.978;2023-11-19T13:37:43;12.35;;;3.30;;
26574;SDS011;67165;50.256;10.978;2023-11-19T13:40:10;11.85;;;2.88;;
26574;SDS011;67165;50.256;10.978;2023-11-19T13:42:39;14.88;;;3.45;;
26574;SDS011;67165;50.256;10.978;2023-11-19T13:45:15;11.40;;;2.85;;
26574;SDS011;67165;50.256;10.978;2023-11-19T13:47:43;9.98;;;3.10;;
26574;SDS011;67165;50.256;10.978;2023-11-19T13:50:10;18.25;;;3.30;;
26574;SDS011;67165;50.256;10.978;2023-11-19T13:52:37;12.88;;;3.38;;
26574;SDS011;67165;50.256;10.978;2023-11-19T13:55:05;14.13;;;3.20;;
26574;SDS011;67165;50.256;10.978;2023-11-19T13:57:31;12.55;;;2.65;;
26574;SDS011;67165;50.256;10.978;2023-11-19T13:59:57;15.93;;;2.90;;
26574;SDS011;67165;50.256;10.978;2023-11-19T14:02:23;15.40;;;3.60;;
26574;SDS011;67165;50.256;10.978;2023-11-19T14:04:48;16.25;;;5.65;;
26574;SDS011;67165;50.256;10.978;2023-11-19T14:07:14;16.05;;;3.58;;
26574;SDS011;67165;50.256;10.978;2023-11-19T14:09:41;16.75;;;3.60;;
26574;SDS011;67165;50.256;10.978;2023-11-19T14:12:07;15.05;;;4.00;;
26574;SDS011;67165;50.256;10.978;2023-11-19T14:14:34;18.73;;;4.60;;
26574;SDS011;67165;50.256;10.978;2023-11-19T14:17:01;13.75;;;3.20;;
26574;SDS011;67165;50.256;10.978;2023-11-19T14:19:28;16.48;;;3.63;;
26574;SDS011;67165;50.256;10.978;2023-11-19T14:21:54;13.52;;;2.97;;
26574;SDS011;67165;50.256;10.978;2023-11-19T14:24:19;11.55;;;2.97;;
26574;SDS011;67165;50.256;10.978;2023-11-19T14:26:46;13.20;;;3.42;;
26574;SDS011;67165;50.256;10.978;2023-11-19T14:29:12;15.15;;;3.97;;
26574;SDS011;67165;50.256;10.978;2023-11-19T14:31:38;16.75;;;3.58;;
26574;SDS011;67165;50.256;10.978;2023-11-19T14:34:04;15.52;;;5.45;;
26574;SDS011;67165;50.256;10.978;2023-11-19T14:36:30;16.17;;;3.92;;
26574;SDS011;67165;50.256;10.978;2023-11-19T14:38:56;16.00;;;4.32;;
26574;SDS011;67165;50.256;10.978;2023-11-19T14:41:23;15.77;;;4.90;;
26574;SDS011;67165;50.256;10.978;2023-11-19T14:43:49;11.90;;;2.95;;
26574;SDS011;67165;50.256;10.978;2023-11-19T14:46:15;12.90;;;2.67;;
26574;SDS011;67165;50.256;10.978;2023-11-19T14:48:41;15.63;;;3.17;;
26574;SDS011;67165;50.256;10.978;2023-11-19T14:51:06;11.63;;;3.10;;
26574;SDS011;67165;50.256;10.978;2023-11-19T14:53:32;14.48;;;3.58;;
26574;SDS011;67165;50.256;10.978;2023-11-19T14:55:58;11.88;;;2.83;;
26574;SDS011;67165;50.256;10.978;2023-11-19T14:58:23;13.70;;;3.42;;